sensor_id;sensor_type;location;lat;lon;timestamp;pressure;altitude;pressure_sealevel;temperature;humidity
43878;BME280;29815;48.184;11.268;2023-01-28T00:00:28;95902.66;;;-2.13;100.00
43878;BME280;29815;48.184;11.268;2023-01-28T00:02:59;95903.84;;;-2.16;100.00
43878;BME280;29815;48.184;11.268;2023-01-28T00:05:32;95904.66;;;-2.15;100.00
43878;BME280;29815;48.184;11.268;2023-01-28T00:08:01;95907.50;;;-2.17;100.00
43878;BME280;29815;48.184;11.268;2023-01-28T00:10:31;95902.22;;;-2.17;100.00
43878;BME280;29815;48.184;11.268;2023-01-28T00:13:01;95904.84;;;-2.17;100.00
43878;BME280;29815;48.184;11.268;2023-01-28T00:15:31;95905.66;;;-2.16;100.00
43878;BME280;29815;48.184;11.268;2023-01-28T00:18:02;95894.50;;;-2.18;100.00
43878;BME280;29815;48.184;11.268;2023-01-28T00:20:32;95891.25;;;-2.20;100.00
43878;BME280;29815;48.184;11.268;2023-01-28T00:23:02;95898.94;;;-2.19;100.00
43878;BME280;29815;48.184;11.268;2023-01-28T00:25:31;95899.16;;;-2.20;100.00
43878;BME280;29815;48.184;11.268;2023-01-28T00:28:01;95897.50;;;-2.21;100.00
43878;BME280;29815;48.184;11.268;2023-01-28T00:30:30;95902.97;;;-2.23;100.00
43878;BME280;29815;48.184;11.268;2023-01-28T00:33:01;95907.88;;;-2.20;100.00
43878;BME280;29815;48.184;11.268;2023-01-28T00:35:31;95905.44;;;-2.21;100.00
43878;BME280;29815;48.184;11.268;2023-01-28T00:38:00;95903.78;;;-2.22;100.00
43878;BME280;29815;48.184;11.268;2023-01-28T00:40:31;95896.69;;;-2.22;100.00
43878;BME280;29815;48.184;11.268;2023-01-28T00:43:01;95899.16;;;-2.20;100.00
43878;BME280;29815;48.184;11.268;2023-01-28T00:45:30;95892.06;;;-2.20;100.00
43878;BME280;29815;48.184;11.268;2023-01-28T00:48:01;95888.59;;;-2.20;100.00
43878;BME280;29815;48.184;11.268;2023-01-28T00:50:32;95888.59;;;-2.20;100.00
43878;BME280;29815;48.184;11.268;2023-01-28T00:53:01;95894.69;;;-2.20;100.00
43878;BME280;29815;48.184;11.268;2023-01-28T00:55:31;95899.16;;;-2.20;100.00
43878;BME280;29815;48.184;11.268;2023-01-28T00:58:00;95891.25;;;-2.20;100.00
43878;BME280;29815;48.184;11.268;2023-01-28T01:00:30;95891.84;;;-2.18;100.00
43878;BME280;29815;48.184;11.268;2023-01-28T01:03:01;95891.84;;;-2.18;100.00
43878;BME280;29815;48.184;11.268;2023-01-28T01:05:31;95895.94;;;-2.16;100.00
43878;BME280;29815;48.184;11.268;2023-01-28T01:08:01;95900.22;;;-2.15;100.00
43878;BME280;29815;48.184;11.268;2023-01-28T01:10:30;95895.13;;;-2.16;100.00
43878;BME280;29815;48.184;11.268;2023-01-28T01:13:07;95899.41;;;-2.15;100.00
43878;BME280;29815;48.184;11.268;2023-01-28T01:15:37;95900.41;;;-2.16;100.00
43878;BME280;29815;48.184;11.268;2023-01-28T01:18:08;95903.66;;;-2.14;100.00
43878;BME280;29815;48.184;11.268;2023-01-28T01:20:41;95908.94;;;-2.14;100.00
43878;BME280;29815;48.184;11.268;2023-01-28T01:23:12;95910.59;;;-2.13;100.00
43878;BME280;29815;48.184;11.268;2023-01-28T01:25:42;95911.22;;;-2.11;100.00
43878;BME280;29815;48.184;11.268;2023-01-28T01:28:11;95919.31;;;-2.13;100.00
43878;BME280;29815;48.184;11.268;2023-01-28T01:30:41;95915.03;;;-2.14;100.00
43878;BME280;29815;48.184;11.268;2023-01-28T01:33:12;95916.84;;;-2.14;100.00
43878;BME280;29815;48.184;11.268;2023-01-28T01:35:41;95919.50;;;-2.14;100.00
43878;BME280;29815;48.184;11.268;2023-01-28T01:38:11;95917.84;;;-2.15;100.00
43878;BME280;29815;48.184;11.268;2023-01-28T01:40:40;95914.75;;;-2.19;100.00
43878;BME280;29815;48.184;11.268;2023-01-28T01:43:15;95913.34;;;-2.21;100.00
43878;BME280;29815;48.184;11.268;2023-01-28T01:45:48;95923.25;;;-2.23;100.00
43878;BME280;29815;48.184;11.268;2023-01-28T01:48:24;95925.69;;;-2.22;100.00
43878;BME280;29815;48.184;11.268;2023-01-28T01:51:01;95912.50;;;-2.22;100.00
43878;BME280;29815;48.184;11.268;2023-01-28T01:53:38;95922.25;;;-2.22;100.00
43878;BME280;29815;48.184;11.268;2023-01-28T01:56:12;95919.44;;;-2.21;100.00
43878;BME280;29815;48.184;11.268;2023-01-28T01:58:47;95916.78;;;-2.21;100.00
43878;BME280;29815;48.184;11.268;2023-01-28T02:01:21;95922.06;;;-2.21;100.00
43878;BME280;29815;48.184;11.268;2023-01-28T02:04:03;95926.34;;;-2.20;100.00
43878;BME280;29815;48.184;11.268;2023-01-28T02:06:35;95919.25;;;-2.19;100.00
43878;BME280;29815;48.184;11.268;2023-01-28T02:09:21;95921.06;;;-2.20;100.00
43878;BME280;29815;48.184;11.268;2023-01-28T02:11:53;95924.88;;;-2.22;100.00
43878;BME280;29815;48.184;11.268;2023-01-28T02:14:27;95926.69;;;-2.23;100.00
43878;BME280;29815;48.184;11.268;2023-01-28T02:16:59;95928.34;;;-2.22;100.00
43878;BME280;29815;48.184;11.268;2023-01-28T02:19:39;95929.50;;;-2.24;100.00
43878;BME280;29815;48.184;11.268;2023-01-28T02:22:37;95932.16;;;-2.24;100.00
43878;BME280;29815;48.184;11.268;2023-01-28T02:25:57;95926.22;;;-2.26;100.00
43878;BME280;29815;48.184;11.268;2023-01-28T02:29:00;95919.59;;;-2.22;100.00
43878;BME280;29815;48.184;11.268;2023-01-28T02:31:39;95923.25;;;-2.23;100.00
43878;BME280;29815;48.184;11.268;2023-01-28T02:34:21;95929.34;;;-2.23;100.00
43878;BME280;29815;48.184;11.268;2023-01-28T02:37:01;95926.06;;;-2.25;100.00
43878;BME280;29815;48.184;11.268;2023-01-28T02:39:45;95933.16;;;-2.25;100.00
43878;BME280;29815;48.184;11.268;2023-01-28T02:42:21;95930.50;;;-2.25;100.00
43878;BME280;29815;48.184;11.268;2023-01-28T02:44:54;95935.97;;;-2.27;100.00
43878;BME280;29815;48.184;11.268;2023-01-28T02:47:24;95932.31;;;-2.26;100.00
43878;BME280;29815;48.184;11.268;2023-01-28T02:50:13;95938.78;;;-2.28;100.00
43878;BME280;29815;48.184;11.268;2023-01-28T02:52:55;95941.22;;;-2.27;100.00
43878;BME280;29815;48.184;11.268;2023-01-28T02:55:51;95949.78;;;-2.25;100.00
43878;BME280;29815;48.184;11.268;2023-01-28T02:58:34;95946.16;;;-2.24;100.00
43878;BME280;29815;48.184;11.268;2023-01-28T03:01:15;95948.78;;;-2.24;100.00
43878;BME280;29815;48.184;11.268;2023-01-28T03:03:57;95950.25;;;-2.21;100.00
43878;BME280;29815;48.184;11.268;2023-01-28T03:06:32;95955.06;;;-2.25;100.00
43878;BME280;29815;48.184;11.268;2023-01-28T03:09:08;95949.78;;;-2.25;100.00
43878;BME280;29815;48.184;11.268;2023-01-28T03:11:57;95952.41;;;-2.25;100.00
43878;BME280;29815;48.184;11.268;2023-01-28T03:14:49;95955.41;;;-2.28;100.00
43878;BME280;29815;48.184;11.268;2023-01-28T03:17:44;95955.59;;;-2.29;100.00
43878;BME280;29815;48.184;11.268;2023-01-28T03:20:38;95955.13;;;-2.33;100.00
43878;BME280;29815;48.184;11.268;2023-01-28T03:23:35;95963.41;;;-2.36;100.00
43878;BME280;29815;48.184;11.268;2023-01-28T03:26:28;95963.56;;;-2.38;100.00
43878;BME280;29815;48.184;11.268;2023-01-28T03:29:18;95965.56;;;-2.40;100.00
43878;BME280;29815;48.184;11.268;2023-01-28T03:32:10;95966.56;;;-2.41;100.00
43878;BME280;29815;48.184;11.268;2023-01-28T03:35:00;95966.38;;;-2.39;100.00
43878;BME280;29815;48.184;11.268;2023-01-28T03:37:47;95970.00;;;-2.40;100.00
43878;BME280;29815;48.184;11.268;2023-01-28T03:40:22;95970.00;;;-2.40;100.00
43878;BME280;29815;48.184;11.268;2023-01-28T03:42:52;95965.75;;;-2.41;100.00
43878;BME280;29815;48.184;11.268;2023-01-28T03:45:32;95970.19;;;-2.42;100.00
43878;BME280;29815;48.184;11.268;2023-01-28T03:48:04;95965.75;;;-2.41;100.00
43878;BME280;29815;48.184;11.268;2023-01-28T03:50:36;95977.94;;;-2.40;100.00
43878;BME280;29815;48.184;11.268;2023-01-28T03:53:06;95978.91;;;-2.41;100.00
43878;BME280;29815;48.184;11.268;2023-01-28T03:55:49;95974.66;;;-2.42;100.00
43878;BME280;29815;48.184;11.268;2023-01-28T03:58:20;95978.75;;;-2.40;100.00
43878;BME280;29815;48.184;11.268;2023-01-28T04:00:54;95974.13;;;-2.38;100.00
43878;BME280;29815;48.184;11.268;2023-01-28T04:03:23;95974.94;;;-2.37;100.00
43878;BME280;29815;48.184;11.268;2023-01-28T04:06:07;95982.19;;;-2.39;100.00
43878;BME280;29815;48.184;11.268;2023-01-28T04:08:59;95979.56;;;-2.39;100.00
43878;BME280;29815;48.184;11.268;2023-01-28T04:11:47;95977.75;;;-2.39;100.00
43878;BME280;29815;48.184;11.268;2023-01-28T04:14:23;95979.38;;;-2.38;100.00
43878;BME280;29815;48.184;11.268;2023-01-28T04:17:04;95991.75;;;-2.38;100.00
43878;BME280;29815;48.184;11.268;2023-01-28T04:19:34;95987.94;;;-2.35;100.00
43878;BME280;29815;48.184;11.268;2023-01-28T04:22:10;95990.94;;;-2.39;100.00
43878;BME280;29815;48.184;11.268;2023-01-28T04:24:42;95991.75;;;-2.38;100.00
43878;BME280;29815;48.184;11.268;2023-01-28T04:27:11;95995.38;;;-2.39;100.00
43878;BME280;29815;48.184;11.268;2023-01-28T04:29:41;95994.38;;;-2.38;100.00
43878;BME280;29815;48.184;11.268;2023-01-28T04:32:35;96000.28;;;-2.36;100.00
43878;BME280;29815;48.184;11.268;2023-01-28T04:35:23;96000.28;;;-2.36;100.00
43878;BME280;29815;48.184;11.268;2023-01-28T04:38:32;96004.41;;;-2.33;100.00
43878;BME280;29815;48.184;11.268;2023-01-28T04:41:08;96001.75;;;-2.33;100.00
43878;BME280;29815;48.184;11.268;2023-01-28T04:43:38;96005.38;;;-2.34;100.00
43878;BME280;29815;48.184;11.268;2023-01-28T04:46:20;96010.31;;;-2.31;100.00
43878;BME280;29815;48.184;11.268;2023-01-28T04:49:12;96004.84;;;-2.30;100.00
43878;BME280;29815;48.184;11.268;2023-01-28T04:51:50;96009.78;;;-2.27;100.00
43878;BME280;29815;48.184;11.268;2023-01-28T04:54:56;96007.78;;;-2.25;100.00
43878;BME280;29815;48.184;11.268;2023-01-28T04:57:25;96009.59;;;-2.25;100.00
43878;BME280;29815;48.184;11.268;2023-01-28T04:59:55;96007.78;;;-2.25;100.00
43878;BME280;29815;48.184;11.268;2023-01-28T05:02:25;96004.97;;;-2.23;100.00
43878;BME280;29815;48.184;11.268;2023-01-28T05:04:54;96015.69;;;-2.25;100.00
43878;BME280;29815;48.184;11.268;2023-01-28T05:07:42;96022.13;;;-2.27;100.00
43878;BME280;29815;48.184;11.268;2023-01-28T05:10:13;96020.31;;;-2.27;100.00
43878;BME280;29815;48.184;11.268;2023-01-28T05:12:44;96020.69;;;-2.30;100.00
43878;BME280;29815;48.184;11.268;2023-01-28T05:15:14;96029.22;;;-2.28;100.00
43878;BME280;29815;48.184;11.268;2023-01-28T05:17:46;96031.03;;;-2.28;100.00
43878;BME280;29815;48.184;11.268;2023-01-28T05:20:20;96027.59;;;-2.29;100.00
43878;BME280;29815;48.184;11.268;2023-01-28T05:22:50;96026.94;;;-2.31;100.00
43878;BME280;29815;48.184;11.268;2023-01-28T05:25:23;96037.31;;;-2.29;100.00
43878;BME280;29815;48.184;11.268;2023-01-28T05:27:54;96034.03;;;-2.31;100.00
43878;BME280;29815;48.184;11.268;2023-01-28T05:30:24;96039.94;;;-2.29;100.00
43878;BME280;29815;48.184;11.268;2023-01-28T05:32:55;96041.75;;;-2.30;100.00
43878;BME280;29815;48.184;11.268;2023-01-28T05:35:25;96044.56;;;-2.31;100.00
43878;BME280;29815;48.184;11.268;2023-01-28T05:37:55;96045.56;;;-2.32;100.00
43878;BME280;29815;48.184;11.268;2023-01-28T05:40:26;96047.38;;;-2.33;100.00
43878;BME280;29815;48.184;11.268;2023-01-28T05:42:55;96044.09;;;-2.35;100.00
43878;BME280;29815;48.184;11.268;2023-01-28T05:45:46;96046.75;;;-2.35;100.00
43878;BME280;29815;48.184;11.268;2023-01-28T05:48:36;96052.00;;;-2.35;100.00
43878;BME280;29815;48.184;11.268;2023-01-28T05:51:24;96053.84;;;-2.35;100.00
43878;BME280;29815;48.184;11.268;2023-01-28T05:53:57;96054.81;;;-2.36;100.00
43878;BME280;29815;48.184;11.268;2023-01-28T05:56:28;96059.09;;;-2.35;100.00
43878;BME280;29815;48.184;11.268;2023-01-28T05:58:57;96062.56;;;-2.35;100.00
43878;BME280;29815;48.184;11.268;2023-01-28T06:01:27;96064.19;;;-2.34;100.00
43878;BME280;29815;48.184;11.268;2023-01-28T06:03:56;96063.84;;;-2.31;100.00
43878;BME280;29815;48.184;11.268;2023-01-28T06:06:28;96061.22;;;-2.31;100.00
43878;BME280;29815;48.184;11.268;2023-01-28T06:08:58;96055.94;;;-2.31;100.00
43878;BME280;29815;48.184;11.268;2023-01-28T06:11:31;96055.94;;;-2.31;100.00
43878;BME280;29815;48.184;11.268;2023-01-28T06:14:04;96064.66;;;-2.30;100.00
43878;BME280;29815;48.184;11.268;2023-01-28T06:16:50;96067.13;;;-2.29;100.00
43878;BME280;29815;48.184;11.268;2023-01-28T06:19:25;96064.50;;;-2.29;100.00
43878;BME280;29815;48.184;11.268;2023-01-28T06:21:55;96078.31;;;-2.27;100.00
43878;BME280;29815;48.184;11.268;2023-01-28T06:24:25;96072.06;;;-2.26;100.00
43878;BME280;29815;48.184;11.268;2023-01-28T06:26:56;96070.41;;;-2.27;100.00
43878;BME280;29815;48.184;11.268;2023-01-28T06:29:26;96080.78;;;-2.25;100.00
43878;BME280;29815;48.184;11.268;2023-01-28T06:31:55;96076.50;;;-2.26;100.00
43878;BME280;29815;48.184;11.268;2023-01-28T06:34:25;96082.41;;;-2.24;100.00
43878;BME280;29815;48.184;11.268;2023-01-28T06:36:55;96077.97;;;-2.24;100.00
43878;BME280;29815;48.184;11.268;2023-01-28T06:39:24;96085.69;;;-2.22;100.00
43878;BME280;29815;48.184;11.268;2023-01-28T06:42:00;96078.44;;;-2.20;100.00
43878;BME280;29815;48.184;11.268;2023-01-28T06:44:29;96075.81;;;-2.20;100.00
43878;BME280;29815;48.184;11.268;2023-01-28T06:46:59;96090.41;;;-2.18;100.00
43878;BME280;29815;48.184;11.268;2023-01-28T06:49:28;96088.59;;;-2.17;100.00
43878;BME280;29815;48.184;11.268;2023-01-28T06:51:58;96091.41;;;-2.19;100.00
43878;BME280;29815;48.184;11.268;2023-01-28T06:54:27;96090.81;;;-2.21;100.00
43878;BME280;29815;48.184;11.268;2023-01-28T06:56:57;96093.25;;;-2.19;100.00
43878;BME280;29815;48.184;11.268;2023-01-28T06:59:28;96102.34;;;-2.22;100.00
43878;BME280;29815;48.184;11.268;2023-01-28T07:01:57;96104.16;;;-2.22;100.00
43878;BME280;29815;48.184;11.268;2023-01-28T07:04:27;96115.06;;;-2.25;100.00
43878;BME280;29815;48.184;11.268;2023-01-28T07:06:56;96113.41;;;-2.26;100.00
43878;BME280;29815;48.184;11.268;2023-01-28T07:09:25;96111.59;;;-2.26;100.00
43878;BME280;29815;48.184;11.268;2023-01-28T07:11:55;96109.59;;;-2.24;100.00
43878;BME280;29815;48.184;11.268;2023-01-28T07:14:24;96114.69;;;-2.22;100.00
43878;BME280;29815;48.184;11.268;2023-01-28T07:16:55;96108.63;;;-2.23;100.00
43878;BME280;29815;48.184;11.268;2023-01-28T07:19:25;96109.44;;;-2.22;100.00
43878;BME280;29815;48.184;11.268;2023-01-28T07:21:54;96113.72;;;-2.21;100.00
43878;BME280;29815;48.184;11.268;2023-01-28T07:24:26;96119.81;;;-2.21;100.00
43878;BME280;29815;48.184;11.268;2023-01-28T07:26:55;96119.81;;;-2.21;100.00
43878;BME280;29815;48.184;11.268;2023-01-28T07:29:25;96126.72;;;-2.20;100.00
43878;BME280;29815;48.184;11.268;2023-01-28T07:31:55;96129.34;;;-2.20;100.00
43878;BME280;29815;48.184;11.268;2023-01-28T07:34:25;96126.50;;;-2.18;100.00
43878;BME280;29815;48.184;11.268;2023-01-28T07:36:54;96132.81;;;-2.19;100.00
43878;BME280;29815;48.184;11.268;2023-01-28T07:39:24;96130.97;;;-2.19;100.00
43878;BME280;29815;48.184;11.268;2023-01-28T07:41:54;96130.19;;;-2.19;100.00
43878;BME280;29815;48.184;11.268;2023-01-28T07:44:36;96136.88;;;-2.17;100.00
43878;BME280;29815;48.184;11.268;2023-01-28T07:47:08;96136.44;;;-2.20;100.00
43878;BME280;29815;48.184;11.268;2023-01-28T07:49:38;96138.69;;;-2.17;100.00
43878;BME280;29815;48.184;11.268;2023-01-28T07:52:08;96141.97;;;-2.15;100.00
43878;BME280;29815;48.184;11.268;2023-01-28T07:54:38;96140.63;;;-2.11;100.00
43878;BME280;29815;48.184;11.268;2023-01-28T07:57:08;96147.72;;;-2.12;100.00
43878;BME280;29815;48.184;11.268;2023-01-28T07:59:38;96147.19;;;-2.07;100.00
43878;BME280;29815;48.184;11.268;2023-01-28T08:02:10;96143.75;;;-2.08;100.00
43878;BME280;29815;48.184;11.268;2023-01-28T08:04:40;96150.31;;;-2.03;100.00
43878;BME280;29815;48.184;11.268;2023-01-28T08:07:10;96159.69;;;-2.01;100.00
43878;BME280;29815;48.184;11.268;2023-01-28T08:09:40;96161.16;;;-1.98;100.00
43878;BME280;29815;48.184;11.268;2023-01-28T08:12:09;96165.25;;;-1.96;100.00
43878;BME280;29815;48.184;11.268;2023-01-28T08:14:38;96162.28;;;-1.93;100.00
43878;BME280;29815;48.184;11.268;2023-01-28T08:17:09;96164.34;;;-1.88;100.00
43878;BME280;29815;48.184;11.268;2023-01-28T08:19:39;96165.00;;;-1.86;100.00
43878;BME280;29815;48.184;11.268;2023-01-28T08:22:08;96167.63;;;-1.86;100.00
43878;BME280;29815;48.184;11.268;2023-01-28T08:24:38;96173.91;;;-1.87;100.00
43878;BME280;29815;48.184;11.268;2023-01-28T08:27:07;96175.38;;;-1.85;100.00
43878;BME280;29815;48.184;11.268;2023-01-28T08:29:37;96180.47;;;-1.83;100.00
43878;BME280;29815;48.184;11.268;2023-01-28T08:32:06;96180.47;;;-1.83;100.00
43878;BME280;29815;48.184;11.268;2023-01-28T08:34:37;96179.13;;;-1.79;100.00
43878;BME280;29815;48.184;11.268;2023-01-28T08:37:07;96187.03;;;-1.79;100.00
43878;BME280;29815;48.184;11.268;2023-01-28T08:39:37;96174.66;;;-1.79;100.00
43878;BME280;29815;48.184;11.268;2023-01-28T08:42:06;96177.94;;;-1.77;100.00
43878;BME280;29815;48.184;11.268;2023-01-28T08:44:36;96175.97;;;-1.75;100.00
43878;BME280;29815;48.184;11.268;2023-01-28T08:47:05;96177.59;;;-1.74;100.00
43878;BME280;29815;48.184;11.268;2023-01-28T08:49:37;96181.72;;;-1.71;100.00
43878;BME280;29815;48.184;11.268;2023-01-28T08:52:06;96186.16;;;-1.72;100.00
43878;BME280;29815;48.184;11.268;2023-01-28T08:54:36;96185.16;;;-1.71;100.00
43878;BME280;29815;48.184;11.268;2023-01-28T08:57:05;96190.44;;;-1.71;100.00
43878;BME280;29815;48.184;11.268;2023-01-28T08:59:35;96195.53;;;-1.69;100.00
43878;BME280;29815;48.184;11.268;2023-01-28T09:02:08;96197.34;;;-1.69;100.00
43878;BME280;29815;48.184;11.268;2023-01-28T09:04:59;96197.00;;;-1.66;100.00
43878;BME280;29815;48.184;11.268;2023-01-28T09:07:28;96197.28;;;-1.61;100.00
43878;BME280;29815;48.184;11.268;2023-01-28T09:09:57;96201.03;;;-1.56;100.00
43878;BME280;29815;48.184;11.268;2023-01-28T09:12:27;96195.38;;;-1.53;100.00
43878;BME280;29815;48.184;11.268;2023-01-28T09:14:56;96198.31;;;-1.48;100.00
43878;BME280;29815;48.184;11.268;2023-01-28T09:17:26;96205.53;;;-1.42;100.00
43878;BME280;29815;48.184;11.268;2023-01-28T09:19:55;96203.16;;;-1.37;100.00
43878;BME280;29815;48.184;11.268;2023-01-28T09:22:26;96199.31;;;-1.34;100.00
43878;BME280;29815;48.184;11.268;2023-01-28T09:24:56;96204.06;;;-1.29;100.00
43878;BME280;29815;48.184;11.268;2023-01-28T09:27:25;96208.00;;;-1.25;100.00
43878;BME280;29815;48.184;11.268;2023-01-28T09:29:55;96205.81;;;-1.22;100.00
43878;BME280;29815;48.184;11.268;2023-01-28T09:32:24;96200.53;;;-1.22;100.00
43878;BME280;29815;48.184;11.268;2023-01-28T09:34:54;96205.47;;;-1.19;100.00
43878;BME280;29815;48.184;11.268;2023-01-28T09:37:25;96205.28;;;-1.17;100.00
43878;BME280;29815;48.184;11.268;2023-01-28T09:39:54;96204.47;;;-1.18;100.00
43878;BME280;29815;48.184;11.268;2023-01-28T09:42:40;96201.00;;;-1.18;100.00
43878;BME280;29815;48.184;11.268;2023-01-28T09:45:22;96198.19;;;-1.17;100.00
43878;BME280;29815;48.184;11.268;2023-01-28T09:47:55;96202.47;;;-1.16;100.00
43878;BME280;29815;48.184;11.268;2023-01-28T09:50:33;96199.28;;;-1.11;100.00
43878;BME280;29815;48.184;11.268;2023-01-28T09:53:12;96206.81;;;-1.08;100.00
43878;BME280;29815;48.184;11.268;2023-01-28T09:55:48;96212.56;;;-1.05;100.00
43878;BME280;29815;48.184;11.268;2023-01-28T09:58:18;96213.22;;;-1.03;100.00
43878;BME280;29815;48.184;11.268;2023-01-28T10:00:53;96214.50;;;-0.98;100.00
43878;BME280;29815;48.184;11.268;2023-01-28T10:03:37;96208.84;;;-0.95;100.00
43878;BME280;29815;48.184;11.268;2023-01-28T10:06:22;96206.66;;;-0.92;100.00
43878;BME280;29815;48.184;11.268;2023-01-28T10:09:19;96198.00;;;-0.86;100.00
43878;BME280;29815;48.184;11.268;2023-01-28T10:15:49;96201.34;;;-0.77;100.00
43878;BME280;29815;48.184;11.268;2023-01-28T10:18:32;96196.72;;;-0.75;100.00
43878;BME280;29815;48.184;11.268;2023-01-28T10:21:12;96197.16;;;-0.72;100.00
43878;BME280;29815;48.184;11.268;2023-01-28T10:23:53;96198.16;;;-0.73;100.00
43878;BME280;29815;48.184;11.268;2023-01-28T10:26:32;96198.16;;;-0.73;100.00
43878;BME280;29815;48.184;11.268;2023-01-28T10:29:10;96191.41;;;-0.75;100.00
43878;BME280;29815;48.184;11.268;2023-01-28T10:31:51;96181.50;;;-0.73;100.00
43878;BME280;29815;48.184;11.268;2023-01-28T10:34:27;96177.94;;;-0.65;100.00
43878;BME280;29815;48.184;11.268;2023-01-28T10:36:57;96178.47;;;-0.55;100.00
43878;BME280;29815;48.184;11.268;2023-01-28T10:39:27;96175.25;;;-0.51;100.00
43878;BME280;29815;48.184;11.268;2023-01-28T10:41:59;96175.69;;;-0.47;100.00
43878;BME280;29815;48.184;11.268;2023-01-28T10:44:33;96171.13;;;-0.39;100.00
43878;BME280;29815;48.184;11.268;2023-01-28T10:47:12;96172.84;;;-0.31;100.00
43878;BME280;29815;48.184;11.268;2023-01-28T10:49:46;96177.38;;;-0.25;100.00
43878;BME280;29815;48.184;11.268;2023-01-28T10:52:19;96182.09;;;-0.20;100.00
43878;BME280;29815;48.184;11.268;2023-01-28T10:54:59;96175.63;;;-0.18;100.00
43878;BME280;29815;48.184;11.268;2023-01-28T10:57:33;96178.72;;;-0.14;100.00
43878;BME280;29815;48.184;11.268;2023-01-28T11:00:16;96181.00;;;-0.11;100.00
43878;BME280;29815;48.184;11.268;2023-01-28T11:02:52;96180.63;;;-0.08;100.00
43878;BME280;29815;48.184;11.268;2023-01-28T11:05:24;96174.50;;;-0.09;100.00
43878;BME280;29815;48.184;11.268;2023-01-28T11:08:11;96173.31;;;-0.06;100.00
43878;BME280;29815;48.184;11.268;2023-01-28T11:10:43;96178.59;;;-0.06;100.00
43878;BME280;29815;48.184;11.268;2023-01-28T11:13:20;96174.31;;;-0.07;100.00
43878;BME280;29815;48.184;11.268;2023-01-28T11:15:53;96174.69;;;-0.10;100.00
43878;BME280;29815;48.184;11.268;2023-01-28T11:18:28;96177.06;;;-0.15;100.00
43878;BME280;29815;48.184;11.268;2023-01-28T11:21:03;96184.75;;;-0.20;100.00
43878;BME280;29815;48.184;11.268;2023-01-28T11:23:48;96189.34;;;-0.29;100.00
43878;BME280;29815;48.184;11.268;2023-01-28T11:26:22;96187.44;;;-0.35;100.00
43878;BME280;29815;48.184;11.268;2023-01-28T11:28:54;96188.44;;;-0.36;100.00
43878;BME280;29815;48.184;11.268;2023-01-28T11:31:25;96188.81;;;-0.39;100.00
43878;BME280;29815;48.184;11.268;2023-01-28T11:33:57;96196.94;;;-0.41;100.00
43878;BME280;29815;48.184;11.268;2023-01-28T11:36:29;96191.28;;;-0.38;100.00
43878;BME280;29815;48.184;11.268;2023-01-28T11:39:02;96184.63;;;-0.33;100.00
43878;BME280;29815;48.184;11.268;2023-01-28T11:41:50;96192.19;;;-0.30;100.00
43878;BME280;29815;48.184;11.268;2023-01-28T11:44:24;96189.97;;;-0.27;100.00
43878;BME280;29815;48.184;11.268;2023-01-28T11:47:38;96182.75;;;-0.18;100.00
43878;BME280;29815;48.184;11.268;2023-01-28T11:50:23;96179.41;;;-0.06;100.00
43878;BME280;29815;48.184;11.268;2023-01-28T11:53:21;96185.38;;;0.03;100.00
43878;BME280;29815;48.184;11.268;2023-01-28T11:56:28;96187.47;;;0.08;100.00
43878;BME280;29815;48.184;11.268;2023-01-28T11:59:48;96175.50;;;0.12;100.00
43878;BME280;29815;48.184;11.268;2023-01-28T12:02:42;96169.41;;;0.11;100.00
43878;BME280;29815;48.184;11.268;2023-01-28T12:05:41;96169.84;;;0.15;100.00
43878;BME280;29815;48.184;11.268;2023-01-28T12:08:22;96171.72;;;0.21;100.00
43878;BME280;29815;48.184;11.268;2023-01-28T12:11:23;96174.75;;;0.18;100.00
43878;BME280;29815;48.184;11.268;2023-01-28T12:14:21;96176.66;;;0.24;100.00
43878;BME280;29815;48.184;11.268;2023-01-28T12:17:18;96175.88;;;0.30;100.00
43878;BME280;29815;48.184;11.268;2023-01-28T12:20:07;96177.94;;;0.34;100.00
43878;BME280;29815;48.184;11.268;2023-01-28T12:23:06;96180.84;;;0.40;100.00
43878;BME280;29815;48.184;11.268;2023-01-28T12:26:00;96174.91;;;0.38;100.00
43878;BME280;29815;48.184;11.268;2023-01-28T12:28:54;96178.25;;;0.46;100.00
43878;BME280;29815;48.184;11.268;2023-01-28T12:32:02;96169.38;;;0.54;100.00
43878;BME280;29815;48.184;11.268;2023-01-28T12:34:57;96171.47;;;0.65;100.00
43878;BME280;29815;48.184;11.268;2023-01-28T12:37:49;96175.38;;;0.69;100.00
43878;BME280;29815;48.184;11.268;2023-01-28T12:40:50;96165.91;;;0.60;100.00
43878;BME280;29815;48.184;11.268;2023-01-28T12:43:44;96172.59;;;0.49;100.00
43878;BME280;29815;48.184;11.268;2023-01-28T12:46:25;96171.44;;;0.37;100.00
43878;BME280;29815;48.184;11.268;2023-01-28T12:49:05;96170.00;;;0.34;100.00
43878;BME280;29815;48.184;11.268;2023-01-28T12:51:49;96176.69;;;0.30;100.00
43878;BME280;29815;48.184;11.268;2023-01-28T12:54:29;96176.03;;;0.22;100.00
43878;BME280;29815;48.184;11.268;2023-01-28T12:57:03;96175.13;;;0.15;100.00
43878;BME280;29815;48.184;11.268;2023-01-28T12:59:42;96174.69;;;0.11;100.00
43878;BME280;29815;48.184;11.268;2023-01-28T13:02:24;96182.00;;;0.09;100.00
43878;BME280;29815;48.184;11.268;2023-01-28T13:05:03;96182.19;;;0.08;100.00
43878;BME280;29815;48.184;11.268;2023-01-28T13:07:42;96175.44;;;0.05;100.00
43878;BME280;29815;48.184;11.268;2023-01-28T13:10:20;96172.56;;;0.00;100.00
43878;BME280;29815;48.184;11.268;2023-01-28T13:12:54;96169.47;;;-0.04;100.00
43878;BME280;29815;48.184;11.268;2023-01-28T13:15:24;96173.94;;;-0.04;100.00
43878;BME280;29815;48.184;11.268;2023-01-28T13:17:56;96170.66;;;-0.06;100.00
43878;BME280;29815;48.184;11.268;2023-01-28T13:20:36;96183.53;;;-0.03;100.00
43878;BME280;29815;48.184;11.268;2023-01-28T13:23:23;96191.50;;;0.04;100.00
43878;BME280;29815;48.184;11.268;2023-01-28T13:25:54;96188.75;;;0.12;100.00
43878;BME280;29815;48.184;11.268;2023-01-28T13:28:28;96195.56;;;0.21;100.00
43878;BME280;29815;48.184;11.268;2023-01-28T13:31:04;96184.41;;;0.25;100.00